Time;durP1;ratioP1;P1;durP2;ratioP2;P2;SDS_P1;SDS_P2;PMS_P1;PMS_P2;Temp;Humidity;BMP_temperature;BMP_pressure;BME280_temperature;BME280_humidity;BME280_pressure;Samples;Min_cycle;Max_cycle;Signal;HPM_P1;HPM_P2
2022/07/14 00:01:38;;;;;;;8.40;4.70;;;18.60;99.90;;;;;;5005365;28;20037;-71
2022/07/14 00:04:06;;;;;;;8.75;4.78;;;18.60;99.90;;;;;;5006948;28;20743;-71
2022/07/14 00:06:32;;;;;;;9.90;4.75;;;18.50;99.90;;;;;;5011647;28;20042;-72
2022/07/14 00:08:58;;;;;;;8.13;4.88;;;18.50;99.90;;;;;;5007985;28;20499;-71
2022/07/14 00:11:24;;;;;;;7.88;4.15;;;18.40;99.90;;;;;;5009762;28;20808;-71
2022/07/14 00:13:50;;;;;;;10.32;4.90;;;18.40;99.90;;;;;;5007102;28;20044;-71
2022/07/14 00:16:16;;;;;;;7.78;4.55;;;18.40;99.90;;;;;;5013866;28;20034;-71
2022/07/14 00:18:44;;;;;;;7.78;4.13;;;18.40;99.90;;;;;;5006572;28;20034;-72
2022/07/14 00:21:14;;;;;;;6.97;4.30;;;18.40;99.90;;;;;;5001659;28;20030;-71
2022/07/14 00:23:43;;;;;;;8.50;4.30;;;18.40;99.90;;;;;;4994320;28;20037;-71
2022/07/14 00:26:10;;;;;;;7.13;4.57;;;18.40;99.90;;;;;;5012901;28;20040;-71
2022/07/14 00:28:36;;;;;;;7.22;4.47;;;18.40;99.90;;;;;;4994069;28;20140;-72
2022/07/14 00:31:10;;;;;;;9.90;5.03;;;18.40;99.90;;;;;;5011332;28;20494;-72
2022/07/14 00:33:38;;;;;;;8.52;4.68;;;18.30;99.90;;;;;;5023170;28;20056;-71
2022/07/14 00:36:05;;;;;;;7.70;4.10;;;18.40;99.90;;;;;;5012166;28;20639;-72
2022/07/14 00:38:30;;;;;;;8.70;5.10;;;18.30;99.90;;;;;;5012999;28;20061;-72
2022/07/14 00:40:56;;;;;;;7.10;4.30;;;18.30;99.90;;;;;;5022101;28;20041;-72
2022/07/14 00:43:22;;;;;;;10.07;5.10;;;18.20;99.90;;;;;;4993890;28;20034;-71
2022/07/14 00:45:48;;;;;;;7.30;4.72;;;18.10;99.90;;;;;;5022347;28;20033;-72
2022/07/14 00:48:14;;;;;;;7.78;4.78;;;18.00;99.90;;;;;;5012768;28;20030;-71
2022/07/14 00:50:44;;;;;;;7.93;5.32;;;17.90;99.90;;;;;;5009925;28;20045;-71
2022/07/14 00:53:10;;;;;;;;;;;17.80;99.90;;;;;;5015052;28;20120;-71
2022/07/14 00:55:38;;;;;;;7.47;4.68;;;17.80;99.90;;;;;;5004373;28;20455;-70
2022/07/14 00:58:04;;;;;;;8.88;5.63;;;17.80;99.90;;;;;;5012203;28;20570;-70
2022/07/14 01:00:30;;;;;;;9.00;5.85;;;17.70;99.90;;;;;;5009749;28;20543;-70
2022/07/14 01:02:56;;;;;;;10.40;6.15;;;17.70;99.90;;;;;;4991179;28;20042;-71
2022/07/14 01:05:22;;;;;;;8.95;6.70;;;17.70;99.90;;;;;;5012712;28;20034;-72
2022/07/14 01:07:48;;;;;;;10.13;6.20;;;17.70;99.90;;;;;;5007771;28;20030;-71
2022/07/14 01:10:14;;;;;;;10.70;7.15;;;17.60;99.90;;;;;;5010635;28;20138;-71
2022/07/14 01:12:47;;;;;;;11.00;6.43;;;17.60;99.90;;;;;;5018834;28;20441;-70
2022/07/14 01:15:14;;;;;;;8.93;6.10;;;17.50;99.90;;;;;;5016789;28;20600;-71
2022/07/14 01:17:40;;;;;;;10.25;6.40;;;17.40;99.90;;;;;;5008100;28;20144;-70
2022/07/14 01:20:07;;;;;;;11.05;6.00;;;17.40;99.90;;;;;;5009890;28;20037;-70
2022/07/14 01:22:32;;;;;;;10.23;6.07;;;17.40;99.90;;;;;;5012238;28;20563;-71
2022/07/14 01:24:58;;;;;;;10.38;6.75;;;17.40;99.90;;;;;;5027464;28;20041;-71
2022/07/14 01:27:24;;;;;;;10.23;5.90;;;17.40;99.90;;;;;;5019416;28;20033;-71
2022/07/14 01:29:50;;;;;;;10.45;5.93;;;17.40;99.90;;;;;;5017017;28;20385;-71
2022/07/14 01:32:16;;;;;;;8.65;6.18;;;17.40;99.90;;;;;;5010218;28;20034;-71
2022/07/14 01:34:42;;;;;;;11.93;7.20;;;17.40;99.90;;;;;;5012473;28;20034;-70
2022/07/14 01:37:08;;;;;;;10.88;6.90;;;17.30;99.90;;;;;;5008703;28;20062;-71
2022/07/14 01:39:33;;;;;;;11.25;6.68;;;17.30;99.90;;;;;;5009788;28;20026;-71
2022/07/14 01:41:59;;;;;;;11.18;7.25;;;17.20;99.90;;;;;;5011862;28;20492;-71
2022/07/14 01:44:25;;;;;;;13.80;8.50;;;17.20;99.90;;;;;;5006817;28;20116;-71
2022/07/14 01:46:50;;;;;;;12.45;6.72;;;17.20;99.90;;;;;;5015291;28;20041;-71
2022/07/14 01:49:16;;;;;;;12.70;7.90;;;17.20;99.90;;;;;;5022317;28;20034;-71
2022/07/14 01:51:42;;;;;;;10.77;6.97;;;17.20;99.90;;;;;;5007379;28;20037;-71
2022/07/14 01:54:08;;;;;;;11.95;7.60;;;17.20;99.90;;;;;;5018439;28;20088;-71
2022/07/14 01:56:38;;;;;;;12.73;8.85;;;17.20;99.90;;;;;;5012980;28;20030;-71
2022/07/14 01:59:04;;;;;;;13.23;8.25;;;17.10;99.90;;;;;;5014272;28;20038;-70
2022/07/14 02:01:39;;;;;;;10.90;7.45;;;17.00;99.90;;;;;;5009434;28;20100;-71
2022/07/14 02:04:05;;;;;;;11.88;7.70;;;17.00;99.90;;;;;;5001983;28;20049;-70
2022/07/14 02:06:31;;;;;;;13.63;7.57;;;17.00;99.90;;;;;;4999633;28;20033;-71
2022/07/14 02:08:58;;;;;;;10.68;7.15;;;17.00;99.90;;;;;;5019208;28;20083;-72
2022/07/14 02:14:08;;;;;;;11.27;6.90;;;17.00;99.90;;;;;;5015381;28;20060;-70
2022/07/14 02:16:34;;;;;;;11.65;7.47;;;17.00;99.90;;;;;;4994676;28;20400;-73
2022/07/14 02:19:00;;;;;;;13.27;7.70;;;17.10;99.90;;;;;;5014790;28;20030;-71
2022/07/14 02:21:27;;;;;;;12.02;7.40;;;17.10;99.90;;;;;;5009701;28;20038;-72
2022/07/14 02:23:53;;;;;;;15.15;7.97;;;17.10;99.90;;;;;;5011904;28;20038;-70
2022/07/14 02:26:19;;;;;;;10.40;5.55;;;17.10;99.90;;;;;;5004499;28;20032;-73
2022/07/14 02:28:44;;;;;;;11.10;6.65;;;17.10;99.90;;;;;;4994007;28;20507;-72
2022/07/14 02:31:11;;;;;;;9.23;6.30;;;17.20;99.90;;;;;;5011333;28;20038;-70
2022/07/14 02:33:37;;;;;;;11.98;7.18;;;17.20;99.90;;;;;;5008883;28;20025;-72
2022/07/14 02:36:04;;;;;;;11.07;7.13;;;17.20;99.90;;;;;;5010324;28;20050;-70
2022/07/14 02:38:30;;;;;;;10.05;6.72;;;17.20;99.90;;;;;;5023623;28;20642;-71
2022/07/14 02:40:56;;;;;;;10.50;6.38;;;17.20;99.90;;;;;;5019607;28;20073;-71
2022/07/14 02:43:34;;;;;;;11.82;7.97;;;17.20;99.90;;;;;;4996464;28;20037;-71
2022/07/14 02:46:01;;;;;;;13.32;7.95;;;17.10;99.90;;;;;;5015473;28;20037;-71
2022/07/14 02:48:26;;;;;;;14.63;7.57;;;17.10;99.90;;;;;;5012239;28;20025;-71
2022/07/14 02:50:59;;;;;;;14.00;8.23;;;17.00;99.90;;;;;;5007070;28;20438;-72
2022/07/14 02:53:25;;;;;;;12.82;7.78;;;16.90;99.90;;;;;;5020717;28;20120;-71
2022/07/14 02:55:50;;;;;;;12.57;6.93;;;16.90;99.90;;;;;;5001090;28;20128;-71
2022/07/14 02:58:18;;;;;;;12.20;6.78;;;16.90;99.90;;;;;;4992804;28;20021;-72
2022/07/14 03:00:43;;;;;;;14.90;8.05;;;16.90;99.90;;;;;;5006245;28;20125;-72
2022/07/14 03:03:09;;;;;;;17.20;8.00;;;16.90;99.90;;;;;;5007379;28;20539;-71
2022/07/14 03:05:35;;;;;;;11.70;7.10;;;16.80;99.90;;;;;;5007332;28;20046;-72
2022/07/14 03:08:00;;;;;;;10.55;6.78;;;16.80;99.90;;;;;;5023311;28;20062;-72
2022/07/14 03:10:26;;;;;;;11.93;7.22;;;16.80;99.90;;;;;;5024940;28;20057;-72
2022/07/14 03:12:52;;;;;;;13.10;6.90;;;16.80;99.90;;;;;;5009965;28;20465;-72
2022/07/14 03:15:18;;;;;;;10.60;6.93;;;16.80;99.90;;;;;;5007418;28;20072;-71
2022/07/14 03:17:44;;;;;;;12.60;6.68;;;16.80;99.90;;;;;;4990528;28;20042;-72
2022/07/14 03:20:12;;;;;;;11.73;6.88;;;16.80;99.90;;;;;;5008438;28;20088;-71
2022/07/14 03:22:38;;;;;;;12.10;6.30;;;16.80;99.90;;;;;;5009844;28;20029;-71
2022/07/14 03:25:05;;;;;;;11.00;7.13;;;16.80;99.90;;;;;;5007986;28;20033;-71
2022/07/14 03:27:31;;;;;;;12.02;7.63;;;16.80;99.90;;;;;;5013645;28;20378;-71
2022/07/14 03:29:57;;;;;;;12.32;7.07;;;16.80;99.90;;;;;;5008296;28;20035;-71
2022/07/14 03:32:23;;;;;;;11.82;7.25;;;16.80;99.90;;;;;;5006636;28;20480;-72
2022/07/14 03:34:49;;;;;;;12.40;7.60;;;16.70;99.90;;;;;;4991678;28;20392;-73
2022/07/14 03:37:15;;;;;;;13.80;7.53;;;16.70;99.90;;;;;;5010536;28;20038;-72
2022/07/14 03:39:41;;;;;;;12.10;7.03;;;16.70;99.90;;;;;;5008280;28;20038;-71
2022/07/14 03:42:06;;;;;;;12.55;6.60;;;16.70;99.90;;;;;;5005892;28;20080;-71
2022/07/14 03:44:32;;;;;;;11.15;7.00;;;16.70;99.90;;;;;;5007957;28;20034;-71
2022/07/14 03:46:58;;;;;;;13.50;7.93;;;16.70;99.90;;;;;;4994583;28;20033;-71
2022/07/14 03:49:24;;;;;;;13.63;7.53;;;16.60;99.90;;;;;;5018728;28;20092;-72
2022/07/14 03:51:50;;;;;;;12.57;7.65;;;16.60;99.90;;;;;;5017078;28;20033;-71
2022/07/14 03:54:15;;;;;;;12.77;7.05;;;16.60;99.90;;;;;;5008804;28;20030;-71
2022/07/14 03:56:41;;;;;;;12.23;7.13;;;16.60;99.90;;;;;;5004740;28;20488;-71
2022/07/14 03:59:07;;;;;;;14.13;7.82;;;16.60;99.90;;;;;;5007740;28;20030;-71
2022/07/14 04:01:33;;;;;;;13.55;8.13;;;16.60;99.90;;;;;;5004280;28;20038;-71
2022/07/14 04:03:59;;;;;;;12.60;7.35;;;16.60;99.90;;;;;;5007952;28;20395;-71
2022/07/14 04:06:24;;;;;;;14.38;8.13;;;16.60;99.90;;;;;;5006810;28;20042;-71
2022/07/14 04:08:50;;;;;;;15.70;7.93;;;16.60;99.90;;;;;;5025069;28;20040;-72
2022/07/14 04:11:16;;;;;;;11.25;7.72;;;16.50;99.90;;;;;;4990958;28;20029;-71
2022/07/14 04:13:41;;;;;;;12.02;8.20;;;16.60;99.90;;;;;;5007168;28;20136;-71
2022/07/14 04:16:07;;;;;;;13.75;8.13;;;16.50;99.90;;;;;;5010853;28;20056;-71
2022/07/14 04:18:33;;;;;;;15.90;9.25;;;16.60;99.90;;;;;;4990198;28;20111;-71
2022/07/14 04:20:59;;;;;;;13.23;7.70;;;16.60;99.90;;;;;;4987458;28;20040;-70
2022/07/14 04:23:24;;;;;;;10.40;8.02;;;16.50;99.90;;;;;;5006523;28;20127;-70
2022/07/14 04:25:50;;;;;;;12.50;9.15;;;16.40;99.90;;;;;;5018381;28;20033;-70
2022/07/14 04:28:16;;;;;;;14.90;9.43;;;16.40;99.90;;;;;;5005215;28;20125;-70
2022/07/14 04:30:42;;;;;;;23.45;11.13;;;16.40;99.90;;;;;;4986677;28;20103;-70
2022/07/14 04:33:12;;;;;;;17.30;9.48;;;16.30;99.90;;;;;;5004021;28;20488;-70
2022/07/14 04:35:38;;;;;;;14.43;9.68;;;16.20;99.90;;;;;;5007529;28;20053;-70
2022/07/14 04:38:04;;;;;;;16.65;10.07;;;16.20;99.90;;;;;;5005193;28;20037;-70
2022/07/14 04:40:29;;;;;;;15.98;7.70;;;16.10;99.90;;;;;;5005800;28;20041;-70
2022/07/14 04:42:55;;;;;;;15.82;8.63;;;16.20;99.90;;;;;;4999670;28;20036;-71
2022/07/14 04:45:22;;;;;;;16.60;9.68;;;16.20;99.90;;;;;;5012606;28;20088;-71
2022/07/14 04:47:49;;;;;;;16.40;11.15;;;16.20;99.90;;;;;;5008672;28;20037;-69
2022/07/14 04:52:59;;;;;;;16.45;10.35;;;16.30;99.90;;;;;;5005147;28;20040;-70
2022/07/14 04:55:25;;;;;;;14.30;8.85;;;16.40;99.90;;;;;;5011087;28;20025;-71
2022/07/14 04:57:50;;;;;;;14.60;9.15;;;16.40;99.90;;;;;;5009347;28;20108;-71
2022/07/14 05:00:16;;;;;;;13.23;8.20;;;16.40;99.90;;;;;;5012376;28;20055;-71
2022/07/14 05:02:42;;;;;;;13.65;9.23;;;16.40;99.90;;;;;;5009856;28;20061;-71
2022/07/14 05:05:08;;;;;;;17.75;8.52;;;16.50;99.90;;;;;;5006742;28;20034;-71
2022/07/14 05:07:34;;;;;;;14.65;8.38;;;16.50;99.90;;;;;;5017117;28;20100;-71
2022/07/14 05:10:00;;;;;;;17.02;9.35;;;16.60;99.90;;;;;;5009487;28;20037;-70
2022/07/14 05:12:26;;;;;;;17.83;9.82;;;16.60;99.90;;;;;;4988926;28;20030;-71
2022/07/14 05:14:52;;;;;;;14.00;8.52;;;16.60;99.90;;;;;;4996326;28;20039;-70
2022/07/14 05:17:18;;;;;;;17.58;9.48;;;16.60;99.90;;;;;;5013941;28;20248;-71
2022/07/14 05:19:47;;;;;;;15.07;9.52;;;16.60;99.90;;;;;;4996802;28;20041;-72
2022/07/14 05:22:13;;;;;;;15.05;9.38;;;16.60;99.90;;;;;;5012892;28;20038;-69
2022/07/14 05:24:38;;;;;;;14.05;9.05;;;16.70;99.90;;;;;;4991640;28;20030;-71
2022/07/14 05:27:04;;;;;;;17.70;9.63;;;16.70;99.90;;;;;;5012276;28;20061;-71
2022/07/14 05:29:31;;;;;;;13.60;7.78;;;16.70;99.90;;;;;;5012147;28;20152;-71
2022/07/14 05:32:00;;;;;;;17.02;8.98;;;16.70;99.90;;;;;;5012747;28;20041;-71
2022/07/14 05:34:26;;;;;;;14.52;8.43;;;16.80;99.90;;;;;;5008757;28;20038;-71
2022/07/14 05:36:52;;;;;;;17.95;9.68;;;16.80;99.90;;;;;;5015074;28;20569;-72
2022/07/14 05:39:17;;;;;;;18.27;9.90;;;16.80;99.90;;;;;;5024336;28;20037;-71
2022/07/14 05:41:43;;;;;;;13.23;8.50;;;16.80;99.90;;;;;;5009984;28;20544;-71
2022/07/14 05:44:09;;;;;;;15.88;9.57;;;16.80;99.90;;;;;;5001128;28;20041;-70
2022/07/14 05:46:34;;;;;;;15.65;8.75;;;16.90;99.90;;;;;;5013092;28;20025;-70
2022/07/14 05:49:00;;;;;;;17.63;9.73;;;16.90;99.90;;;;;;5017712;28;20037;-71
2022/07/14 05:51:26;;;;;;;13.80;7.97;;;17.00;99.90;;;;;;5008988;28;20041;-71
2022/07/14 05:53:52;;;;;;;16.30;7.97;;;17.00;99.90;;;;;;5007878;28;20034;-71
2022/07/14 05:56:18;;;;;;;15.77;8.30;;;17.10;99.90;;;;;;4995046;28;20030;-71
2022/07/14 05:58:45;;;;;;;16.80;8.13;;;17.10;99.90;;;;;;5006637;28;20033;-70
2022/07/14 06:01:14;;;;;;;13.75;8.48;;;17.20;99.90;;;;;;5016114;28;20041;-72
2022/07/14 06:03:40;;;;;;;15.45;7.85;;;17.20;99.90;;;;;;5008284;28;20042;-70
2022/07/14 06:06:08;;;;;;;16.48;8.43;;;17.20;99.90;;;;;;5001163;28;20080;-71
2022/07/14 06:08:34;;;;;;;15.50;8.32;;;17.30;99.90;;;;;;5014625;28;20037;-71
2022/07/14 06:11:01;;;;;;;19.02;7.90;;;17.30;99.90;;;;;;5014862;28;20072;-71
2022/07/14 06:13:29;;;;;;;14.80;6.97;;;17.40;99.90;;;;;;5017050;28;20026;-70
2022/07/14 06:15:56;;;;;;;14.73;6.78;;;17.40;99.90;;;;;;5008918;28;20173;-71
2022/07/14 06:18:23;;;;;;;16.80;7.97;;;17.50;99.90;;;;;;4988934;28;20037;-71
2022/07/14 06:20:49;;;;;;;16.48;7.15;;;17.50;99.90;;;;;;5008728;28;20033;-70
2022/07/14 06:23:15;;;;;;;15.50;7.20;;;17.60;99.90;;;;;;4991800;28;20514;-70
2022/07/14 06:25:42;;;;;;;14.57;6.97;;;17.70;99.90;;;;;;5007932;28;20037;-70
2022/07/14 06:28:08;;;;;;;10.10;5.93;;;17.80;99.90;;;;;;5006156;28;20058;-70
2022/07/14 06:30:34;;;;;;;14.93;6.93;;;17.80;99.90;;;;;;5013762;28;20033;-70
2022/07/14 06:33:01;;;;;;;13.43;7.05;;;17.90;99.90;;;;;;5001590;28;20030;-70
2022/07/14 06:35:26;;;;;;;14.57;8.00;;;17.90;99.90;;;;;;5004829;28;20487;-71
2022/07/14 06:37:53;;;;;;;14.70;7.35;;;18.00;99.90;;;;;;5009264;28;20034;-70
2022/07/14 06:40:19;;;;;;;17.70;6.90;;;18.00;99.90;;;;;;5002920;28;20041;-70
2022/07/14 06:42:45;;;;;;;16.88;7.22;;;18.10;99.90;;;;;;4984489;28;20497;-70
2022/07/14 06:45:12;;;;;;;17.58;7.03;;;18.20;99.90;;;;;;4985677;28;20173;-73
2022/07/14 06:47:37;;;;;;;15.35;7.18;;;18.20;99.90;;;;;;5004928;28;20124;-74
2022/07/14 06:50:05;;;;;;;16.23;7.45;;;18.30;99.90;;;;;;5003263;28;20183;-73
2022/07/14 06:52:31;;;;;;;18.25;7.10;;;18.40;99.90;;;;;;5004641;28;20060;-73
2022/07/14 06:55:01;;;;;;;16.67;7.50;;;18.40;99.90;;;;;;5008005;28;20065;-73
2022/07/14 06:57:27;;;;;;;15.15;7.38;;;18.50;99.90;;;;;;5005460;28;20026;-74
2022/07/14 06:59:53;;;;;;;15.55;7.85;;;18.50;99.90;;;;;;5006271;28;20068;-73
2022/07/14 07:02:19;;;;;;;15.88;7.40;;;18.60;99.90;;;;;;5004914;28;20037;-73
2022/07/14 07:07:33;;;;;;;16.48;6.85;;;18.70;99.90;;;;;;5013599;28;20041;-72
2022/07/14 07:09:59;;;;;;;12.73;6.70;;;18.80;99.90;;;;;;5005258;28;20030;-74
2022/07/14 07:12:24;;;;;;;16.38;7.07;;;18.90;99.90;;;;;;5007696;28;20400;-74
2022/07/14 07:14:50;;;;;;;16.10;6.75;;;18.90;99.90;;;;;;5005981;28;20036;-73
2022/07/14 07:17:16;;;;;;;14.15;6.00;;;19.10;99.90;;;;;;5007089;28;20144;-74
2022/07/14 07:19:41;;;;;;;18.48;6.80;;;19.20;99.90;;;;;;5008827;28;20042;-72
2022/07/14 07:22:07;;;;;;;14.98;6.53;;;19.20;99.90;;;;;;5003681;28;20469;-71
2022/07/14 07:24:33;;;;;;;14.70;5.78;;;19.30;99.90;;;;;;4991613;28;20061;-71
2022/07/14 07:26:58;;;;;;;13.63;6.00;;;19.40;99.90;;;;;;5004330;28;20034;-72
2022/07/14 07:29:24;;;;;;;14.23;6.30;;;19.40;99.90;;;;;;5007169;28;20499;-72
2022/07/14 07:31:49;;;;;;;13.55;6.20;;;19.60;99.90;;;;;;5008006;28;20025;-71
2022/07/14 07:34:15;;;;;;;12.38;5.50;;;19.60;99.90;;;;;;4991012;28;20069;-74
2022/07/14 07:36:41;;;;;;;13.18;6.40;;;19.60;99.90;;;;;;5009328;28;20092;-72
2022/07/14 07:39:06;;;;;;;14.52;6.40;;;19.70;99.90;;;;;;5008345;28;20053;-72
2022/07/14 07:41:32;;;;;;;13.65;5.78;;;19.80;99.90;;;;;;5008067;28;20038;-73
2022/07/14 07:43:58;;;;;;;10.05;5.45;;;19.90;99.90;;;;;;5008617;28;20053;-74
2022/07/14 07:46:26;;;;;;;11.95;6.38;;;20.10;99.90;;;;;;5008045;28;20033;-73
2022/07/14 07:48:51;;;;;;;13.65;6.13;;;20.20;99.90;;;;;;5008036;28;20030;-71
2022/07/14 07:51:17;;;;;;;14.25;6.07;;;20.30;99.90;;;;;;5006311;28;20030;-73
2022/07/14 07:53:43;;;;;;;14.88;6.22;;;20.40;99.90;;;;;;5008558;28;20048;-71
2022/07/14 07:56:09;;;;;;;10.73;5.90;;;20.40;99.90;;;;;;5006263;28;20033;-71
2022/07/14 07:58:35;;;;;;;11.82;5.72;;;20.50;99.90;;;;;;4990996;28;20037;-70
2022/07/14 08:01:01;;;;;;;11.95;5.88;;;20.50;99.90;;;;;;4998231;28;20052;-70
2022/07/14 08:03:27;;;;;;;11.18;5.32;;;20.70;99.90;;;;;;5008180;28;20083;-70
2022/07/14 08:05:52;;;;;;;11.45;5.35;;;20.80;99.90;;;;;;5008191;28;20038;-70
2022/07/14 08:08:18;;;;;;;11.48;5.05;;;20.90;99.90;;;;;;5007043;28;20081;-70
2022/07/14 08:10:44;;;;;;;13.00;5.55;;;21.00;99.90;;;;;;5008502;28;20499;-73
2022/07/14 08:13:10;;;;;;;9.75;5.32;;;21.20;99.90;;;;;;5008526;28;20392;-73
2022/07/14 08:15:36;;;;;;;15.27;5.68;;;21.30;99.90;;;;;;5006801;28;20030;-73
2022/07/14 08:18:03;;;;;;;9.77;4.40;;;21.50;99.90;;;;;;5008083;28;20499;-73
2022/07/14 08:20:29;;;;;;;8.10;4.63;;;21.60;99.90;;;;;;5006119;28;20041;-73
2022/07/14 08:22:55;;;;;;;11.15;4.88;;;21.60;99.90;;;;;;4995112;28;20108;-73
2022/07/14 08:25:22;;;;;;;9.50;4.50;;;21.60;99.90;;;;;;5005823;28;20037;-75
2022/07/14 08:27:48;;;;;;;9.35;4.93;;;21.50;99.90;;;;;;4999309;28;20480;-75
2022/07/14 08:30:13;;;;;;;11.05;4.72;;;21.40;99.90;;;;;;5005135;28;20034;-74
2022/07/14 08:32:49;;;;;;;11.73;5.40;;;21.40;99.90;;;;;;4994402;28;20493;-73
2022/07/14 08:35:17;;;;;;;11.65;5.32;;;21.50;99.90;;;;;;5006272;28;20053;-73
2022/07/14 08:37:43;;;;;;;10.27;5.30;;;21.60;99.90;;;;;;4973631;28;20425;-71
2022/07/14 08:40:13;;;;;;;11.48;5.40;;;21.70;99.90;;;;;;4988312;28;20092;-72
2022/07/14 08:42:41;;;;;;;;;;;21.60;99.90;;;;;;4995000;28;20724;-72
2022/07/14 08:45:10;;;;;;;11.13;5.55;;;21.60;99.90;;;;;;5010987;28;19913;-74
2022/07/14 08:47:36;;;;;;;12.13;5.10;;;21.60;99.90;;;;;;4994528;28;20026;-72
2022/07/14 08:50:04;;;;;;;13.20;5.93;;;21.50;99.90;;;;;;5001864;28;20036;-70
2022/07/14 08:52:31;;;;;;;10.32;5.57;;;21.50;99.90;;;;;;5010981;28;20036;-70
2022/07/14 08:54:57;;;;;;;11.70;6.07;;;21.50;99.90;;;;;;5008787;28;20473;-69
2022/07/14 08:57:23;;;;;;;10.95;5.68;;;21.50;99.90;;;;;;5010042;28;20069;-69
2022/07/14 08:59:48;;;;;;;10.27;5.57;;;21.70;99.90;;;;;;5006513;28;20152;-69
2022/07/14 09:02:14;;;;;;;8.23;4.97;;;21.80;99.90;;;;;;5011387;28;20193;-69
2022/07/14 09:04:44;;;;;;;9.88;5.15;;;21.80;99.90;;;;;;5010878;28;20492;-70
2022/07/14 09:07:12;;;;;;;8.40;4.55;;;22.00;99.90;;;;;;4992252;28;20120;-70
2022/07/14 09:09:38;;;;;;;9.70;4.82;;;22.10;99.90;;;;;;5009984;28;20388;-69
2022/07/14 09:12:06;;;;;;;9.52;4.60;;;22.10;99.90;;;;;;5022902;28;20034;-71
2022/07/14 09:17:22;;;;;;;8.38;4.57;;;22.30;99.90;;;;;;5003665;28;20762;-71
2022/07/14 09:20:07;;;;;;;9.50;4.68;;;22.40;99.90;;;;;;5011963;28;20049;-71
2022/07/14 09:22:38;;;;;;;8.48;3.97;;;22.40;99.90;;;;;;4997266;28;20042;-71
2022/07/14 09:25:08;;;;;;;8.05;3.78;;;22.40;99.90;;;;;;5003128;28;20492;-71
2022/07/14 09:27:34;;;;;;;6.93;3.67;;;22.50;99.90;;;;;;5011104;28;20051;-71
2022/07/14 09:30:00;;;;;;;8.48;3.90;;;22.60;99.90;;;;;;4992046;28;20382;-71
2022/07/14 09:32:46;;;;;;;7.28;3.65;;;22.60;99.70;;;;;;4991298;28;20514;-71
2022/07/14 09:35:13;;;;;;;7.85;3.58;;;22.80;99.90;;;;;;4990992;28;21075;-71
2022/07/14 09:37:39;;;;;;;9.57;3.78;;;22.90;99.30;;;;;;4991421;28;20077;-72
2022/07/14 09:40:10;;;;;;;7.93;3.22;;;22.90;99.70;;;;;;4991357;28;20126;-70
2022/07/14 09:42:53;;;;;;;7.85;2.67;;;23.10;98.60;;;;;;5010938;28;20104;-71
2022/07/14 09:45:25;;;;;;;8.60;2.97;;;23.10;98.00;;;;;;5010412;28;20022;-71
2022/07/14 09:48:07;;;;;;;6.32;2.85;;;23.20;97.90;;;;;;5010476;28;20033;-71
2022/07/14 09:50:50;;;;;;;7.15;2.60;;;23.20;97.00;;;;;;4992816;28;20065;-71
2022/07/14 09:53:23;;;;;;;8.05;2.63;;;23.30;96.80;;;;;;5008163;28;20096;-69
2022/07/14 09:55:58;;;;;;;4.65;2.20;;;23.30;96.00;;;;;;4991433;28;20093;-70
2022/07/14 09:58:26;;;;;;;5.90;2.15;;;23.30;96.40;;;;;;4990848;28;20088;-70
2022/07/14 10:00:59;;;;;;;7.28;2.58;;;23.40;95.30;;;;;;4973213;28;20709;-70
2022/07/14 10:03:27;;;;;;;5.45;1.95;;;23.40;94.60;;;;;;4990843;28;20133;-70
2022/07/14 10:05:54;;;;;;;4.93;2.10;;;23.50;92.00;;;;;;4991225;28;20034;-70
2022/07/14 10:08:25;;;;;;;6.43;2.30;;;23.60;93.10;;;;;;4990889;28;20038;-70
2022/07/14 10:10:52;;;;;;;5.15;1.90;;;23.60;92.60;;;;;;4990972;28;20070;-71
2022/07/14 10:13:20;;;;;;;7.18;2.08;;;23.70;91.30;;;;;;4997661;28;20088;-71
2022/07/14 10:15:49;;;;;;;5.03;1.80;;;23.80;90.90;;;;;;5010079;28;20404;-71
2022/07/14 10:18:15;;;;;;;;;;;23.80;90.50;;;;;;4992970;28;20046;-71
2022/07/14 10:20:40;;;;;;;5.85;1.85;;;23.90;87.50;;;;;;5009880;28;19913;-70
2022/07/14 10:23:07;;;;;;;5.57;1.60;;;24.00;88.90;;;;;;4992324;28;20034;-72
2022/07/14 10:25:33;;;;;;;4.70;1.77;;;24.00;87.00;;;;;;5010303;28;20112;-70
2022/07/14 10:28:00;;;;;;;5.85;1.60;;;24.20;87.50;;;;;;5009775;28;20554;-69
2022/07/14 10:30:58;;;;;;;5.82;2.03;;;24.30;84.00;;;;;;5010333;28;20091;-70
2022/07/14 10:33:31;;;;;;;6.18;1.85;;;24.40;82.60;;;;;;4967790;28;20129;-71
2022/07/14 10:36:16;;;;;;;8.02;1.98;;;24.50;82.80;;;;;;4967633;28;20065;-72
2022/07/14 10:39:27;;;;;;;4.45;1.52;;;24.60;79.50;;;;;;4951819;28;20069;-69
2022/07/14 10:42:01;;;;;;;5.20;1.70;;;24.70;77.00;;;;;;4949224;28;20043;-70
2022/07/14 10:44:30;;;;;;;5.30;1.77;;;24.80;74.50;;;;;;4967787;28;20050;-70
2022/07/14 10:47:42;;;;;;;4.68;1.58;;;24.80;75.50;;;;;;4967896;28;20063;-70
2022/07/14 10:50:12;;;;;;;5.82;1.45;;;24.90;71.30;;;;;;4930310;29;20059;-69
2022/07/14 10:52:50;;;;;;;5.63;1.60;;;25.00;73.70;;;;;;4928707;29;20063;-71
2022/07/14 10:55:27;;;;;;;5.72;1.45;;;25.10;69.90;;;;;;4913400;29;20130;-70
2022/07/14 10:57:59;;;;;;;6.97;1.60;;;25.10;71.40;;;;;;4929414;29;20099;-71
2022/07/14 11:00:47;;;;;;;7.57;2.15;;;25.20;69.30;;;;;;4929169;29;20047;-71
2022/07/14 11:03:46;;;;;;;6.27;1.60;;;25.40;70.10;;;;;;4910245;29;20060;-70
2022/07/14 11:06:15;;;;;;;5.32;1.30;;;25.40;61.80;;;;;;4909849;29;20279;-70
2022/07/14 11:09:05;;;;;;;4.35;1.27;;;25.50;65.20;;;;;;4904715;29;20023;-70
2022/07/14 11:11:32;;;;;;;;;;;25.50;63.40;;;;;;4909444;29;20052;-71
2022/07/14 11:14:00;;;;;;;6.97;1.88;;;25.70;59.90;;;;;;4916301;29;19914;-71
2022/07/14 11:16:44;;;;;;;3.92;1.20;;;26.20;58.50;;;;;;4928962;29;20065;-70
2022/07/14 11:19:21;;;;;;;4.80;1.40;;;27.30;56.00;;;;;;4928938;29;20107;-71
2022/07/14 11:22:16;;;;;;;5.25;1.50;;;28.90;50.40;;;;;;4929191;29;20042;-71
2022/07/14 11:25:23;;;;;;;3.55;1.23;;;29.90;45.90;;;;;;4943983;28;20042;-70
2022/07/14 11:27:48;;;;;;;5.43;1.30;;;30.50;44.00;;;;;;4989136;28;20026;-71
2022/07/14 11:30:37;;;;;;;4.38;1.23;;;32.10;41.40;;;;;;4997711;28;20033;-71
2022/07/14 11:33:11;;;;;;;4.18;1.27;;;33.00;39.20;;;;;;5008857;28;20050;-71
2022/07/14 11:38:29;;;;;;;6.50;1.50;;;30.70;39.60;;;;;;5002268;28;20065;-71
2022/07/14 11:40:55;;;;;;;3.20;1.30;;;29.70;40.50;;;;;;4988704;28;20657;-72
2022/07/14 11:43:30;;;;;;;4.35;1.40;;;28.80;41.20;;;;;;5004768;28;20046;-71
2022/07/14 11:46:07;;;;;;;4.78;1.60;;;28.00;42.40;;;;;;5007266;28;20056;-72
2022/07/14 11:48:42;;;;;;;5.10;1.40;;;27.50;44.20;;;;;;5005248;28;20033;-70
2022/07/14 11:51:23;;;;;;;4.57;1.35;;;27.10;45.90;;;;;;5001763;28;20119;-71
2022/07/14 11:54:16;;;;;;;4.38;1.60;;;27.00;46.10;;;;;;4999059;28;20025;-71
2022/07/14 11:56:41;;;;;;;3.55;1.38;;;26.80;46.10;;;;;;4994045;28;20051;-71
2022/07/14 11:59:09;;;;;;;4.57;1.45;;;26.70;48.00;;;;;;5008507;28;20030;-71
2022/07/14 12:01:38;;;;;;;6.28;1.50;;;26.70;48.40;;;;;;5007823;28;20084;-72
2022/07/14 12:04:04;;;;;;;;;;;26.80;46.40;;;;;;4990879;28;20400;-72
2022/07/14 12:06:30;;;;;;;4.85;1.27;;;26.90;47.10;;;;;;5006810;28;19909;-72
2022/07/14 12:08:56;;;;;;;5.78;1.45;;;27.00;45.70;;;;;;5009490;28;20487;-72
2022/07/14 12:11:22;;;;;;;5.63;1.40;;;26.90;46.40;;;;;;5028098;28;20107;-73
2022/07/14 12:13:53;;;;;;;4.40;1.33;;;26.80;47.30;;;;;;5028232;28;20376;-72
2022/07/14 12:16:20;;;;;;;4.18;1.27;;;26.60;46.80;;;;;;5027398;28;20057;-73
2022/07/14 12:18:46;;;;;;;4.43;1.10;;;26.60;44.90;;;;;;5027901;28;20109;-71
2022/07/14 12:21:13;;;;;;;4.38;1.42;;;26.60;48.00;;;;;;5028041;28;20037;-72
2022/07/14 12:23:56;;;;;;;4.60;1.23;;;26.60;45.40;;;;;;5027775;28;20042;-70
2022/07/14 12:26:24;;;;;;;5.63;1.20;;;26.60;48.50;;;;;;5009764;28;20038;-72
2022/07/14 12:28:52;;;;;;;6.28;1.27;;;26.60;47.20;;;;;;5002817;28;20118;-75
2022/07/14 12:31:19;;;;;;;4.65;1.35;;;26.60;46.50;;;;;;5004799;28;20044;-76
2022/07/14 12:33:46;;;;;;;6.40;1.50;;;26.50;46.60;;;;;;5005273;28;20128;-76
2022/07/14 12:36:18;;;;;;;5.03;1.38;;;26.30;47.20;;;;;;5017800;28;20084;-77
2022/07/14 12:38:45;;;;;;;4.55;1.50;;;25.90;48.50;;;;;;5027398;28;20029;-75
2022/07/14 12:41:13;;;;;;;3.80;1.08;;;25.90;48.40;;;;;;5018301;28;20045;-76
2022/07/14 12:43:42;;;;;;;3.58;1.30;;;25.90;49.50;;;;;;5007602;28;20444;-76
2022/07/14 12:46:15;;;;;;;6.13;1.33;;;26.20;47.90;;;;;;5007333;28;20623;-76
2022/07/14 12:48:50;;;;;;;4.50;1.17;;;26.40;47.60;;;;;;4994506;28;20307;-75
2022/07/14 12:51:38;;;;;;;5.35;1.30;;;26.50;46.40;;;;;;5007090;28;20034;-76
2022/07/14 12:54:04;;;;;;;5.50;1.37;;;26.60;45.60;;;;;;5008172;28;20036;-76
2022/07/14 12:56:32;;;;;;;4.05;1.17;;;26.40;44.50;;;;;;5006376;28;20081;-76
2022/07/14 12:59:01;;;;;;;3.55;1.10;;;26.30;45.10;;;;;;4989727;28;20551;-75
2022/07/14 13:01:27;;;;;;;4.28;1.05;;;26.50;44.80;;;;;;5007934;28;20042;-76
2022/07/14 13:03:58;;;;;;;2.60;0.90;;;26.80;43.30;;;;;;5008314;28;20034;-76